createdAt,value
2017-11-07T00:00:09.773Z,0
2017-11-07T00:00:50.357Z,0
2017-11-07T00:01:30.946Z,0
2017-11-07T00:02:11.542Z,0
2017-11-07T00:02:52.136Z,0
2017-11-07T00:03:32.718Z,0
2017-11-07T00:04:13.293Z,0
2017-11-07T00:04:53.909Z,0
2017-11-07T00:05:34.504Z,0
2017-11-07T00:06:15.128Z,0
2017-11-07T00:06:55.709Z,0
2017-11-07T00:07:36.409Z,0
2017-11-07T00:08:17.010Z,0
2017-11-07T00:08:57.600Z,0
2017-11-07T00:09:38.212Z,0
2017-11-07T00:10:18.802Z,0
2017-11-07T00:10:59.375Z,0
2017-11-07T00:11:39.957Z,0
2017-11-07T00:12:20.575Z,0
2017-11-07T00:13:01.183Z,0
2017-11-07T00:13:41.782Z,0
2017-11-07T00:14:22.361Z,0
2017-11-07T00:15:02.941Z,0
2017-11-07T00:15:43.600Z,0
2017-11-07T00:16:24.185Z,0
2017-11-07T00:17:04.767Z,0
2017-11-07T00:17:45.372Z,0
2017-11-07T00:18:25.961Z,0
2017-11-07T00:19:06.576Z,0
2017-11-07T00:19:47.160Z,0
2017-11-07T00:20:27.770Z,0
2017-11-07T00:21:08.364Z,0
2017-11-07T00:21:48.966Z,0
2017-11-07T00:22:29.573Z,0
2017-11-07T00:23:10.192Z,0
2017-11-07T00:23:50.783Z,0
2017-11-07T00:24:31.381Z,0
2017-11-07T00:25:11.932Z,0
2017-11-07T00:25:52.514Z,0
2017-11-07T00:26:33.111Z,0
2017-11-07T00:27:13.702Z,0
2017-11-07T00:27:54.298Z,0
2017-11-07T00:28:34.892Z,0
2017-11-07T00:29:15.461Z,0
2017-11-07T00:29:56.065Z,0
2017-11-07T00:30:36.641Z,0
2017-11-07T00:31:17.264Z,0
2017-11-07T00:31:57.852Z,0
2017-11-07T00:32:38.444Z,0
2017-11-07T00:33:19.029Z,0
2017-11-07T00:33:59.613Z,0
2017-11-07T00:34:40.209Z,0
2017-11-07T00:35:20.780Z,0
2017-11-07T00:36:01.408Z,0
2017-11-07T00:36:41.955Z,0
2017-11-07T00:37:22.571Z,0
2017-11-07T00:38:03.175Z,0
2017-11-07T00:38:43.758Z,0
2017-11-07T00:39:24.351Z,0
2017-11-07T00:40:04.938Z,0
2017-11-07T00:40:45.506Z,0
2017-11-07T00:41:26.094Z,0
2017-11-07T00:42:06.676Z,0
2017-11-07T00:42:47.249Z,0
2017-11-07T00:43:27.822Z,0
2017-11-07T00:44:08.407Z,0
2017-11-07T00:44:49.010Z,0
2017-11-07T00:45:29.594Z,0
2017-11-07T00:46:10.172Z,0
2017-11-07T00:46:50.762Z,0
2017-11-07T00:47:31.332Z,0
2017-11-07T00:48:11.959Z,0
2017-11-07T00:48:52.553Z,0
2017-11-07T00:49:33.132Z,0
2017-11-07T00:50:13.717Z,0
2017-11-07T00:50:54.298Z,0
2017-11-07T00:51:34.891Z,0
2017-11-07T00:52:15.467Z,0
2017-11-07T00:52:56.046Z,0
2017-11-07T00:53:36.653Z,0
2017-11-07T00:54:17.210Z,0
2017-11-07T00:54:57.779Z,0
2017-11-07T00:55:38.348Z,0
2017-11-07T00:56:18.915Z,0
2017-11-07T00:56:59.497Z,0
2017-11-07T00:57:40.102Z,0
2017-11-07T00:58:20.700Z,0
2017-11-07T00:59:01.294Z,0
2017-11-07T00:59:41.879Z,0
2017-11-07T01:00:22.465Z,0
2017-11-07T01:01:03.034Z,0
2017-11-07T01:01:43.601Z,0
2017-11-07T01:02:24.179Z,0
2017-11-07T01:03:04.772Z,0
2017-11-07T01:03:45.414Z,0
2017-11-07T01:04:25.951Z,0
2017-11-07T01:05:06.556Z,0
2017-11-07T01:05:47.127Z,0
2017-11-07T01:06:27.706Z,0
2017-11-07T01:07:08.280Z,0
2017-11-07T01:07:48.850Z,0
2017-11-07T01:08:29.457Z,0
2017-11-07T01:09:10.046Z,0
2017-11-07T01:09:50.689Z,0
2017-11-07T01:10:31.270Z,0
2017-11-07T01:11:11.844Z,0
2017-11-07T01:11:52.452Z,0
2017-11-07T01:12:33.043Z,0
2017-11-07T01:13:13.624Z,0
2017-11-07T01:13:54.210Z,0
2017-11-07T01:14:34.824Z,0
2017-11-07T01:15:15.410Z,0
2017-11-07T01:15:55.984Z,0
2017-11-07T01:16:36.608Z,0
2017-11-07T01:17:17.158Z,0
2017-11-07T01:17:57.732Z,0
2017-11-07T01:18:38.323Z,0
2017-11-07T01:19:18.906Z,0
2017-11-07T01:19:59.502Z,0
2017-11-07T01:20:40.110Z,0
2017-11-07T01:21:20.728Z,0
2017-11-07T01:22:01.347Z,0
2017-11-07T01:22:41.930Z,0
2017-11-07T01:23:22.499Z,0
2017-11-07T01:24:03.066Z,0
2017-11-07T01:24:44.769Z,0
2017-11-07T01:25:25.365Z,0
2017-11-07T01:26:05.948Z,0
2017-11-07T01:26:46.554Z,0
2017-11-07T01:27:27.138Z,0
2017-11-07T01:28:07.730Z,0
2017-11-07T01:28:48.307Z,0
2017-11-07T01:29:28.870Z,0
2017-11-07T01:30:09.458Z,0
2017-11-07T01:30:50.036Z,0
2017-11-07T01:31:30.646Z,0
2017-11-07T01:32:11.238Z,0
2017-11-07T01:32:51.824Z,0
2017-11-07T01:33:32.417Z,0
2017-11-07T01:34:13.012Z,0
2017-11-07T01:34:53.588Z,0
2017-11-07T01:35:34.164Z,0
2017-11-07T01:36:14.767Z,0
2017-11-07T01:36:55.323Z,0
2017-11-07T01:37:35.966Z,0
2017-11-07T01:38:16.509Z,0
2017-11-07T01:38:57.083Z,0
2017-11-07T01:39:37.659Z,0
2017-11-07T01:40:18.242Z,0
2017-11-07T01:40:58.802Z,0
2017-11-07T01:41:39.412Z,0
2017-11-07T01:42:20.005Z,0
2017-11-07T01:43:00.577Z,0
2017-11-07T01:43:41.154Z,0
2017-11-07T01:44:21.729Z,0
2017-11-07T01:45:02.301Z,0
2017-11-07T01:45:42.880Z,0
2017-11-07T01:46:23.449Z,0
2017-11-07T01:47:04.032Z,0
2017-11-07T01:47:44.619Z,0
2017-11-07T01:48:25.198Z,0
2017-11-07T01:49:05.779Z,0
2017-11-07T01:49:46.353Z,0
2017-11-07T01:50:26.930Z,0
2017-11-07T01:51:07.521Z,0
2017-11-07T01:51:48.104Z,0
2017-11-07T01:52:28.674Z,0
2017-11-07T01:53:09.259Z,0
2017-11-07T01:53:49.819Z,0
2017-11-07T01:54:30.427Z,0
2017-11-07T01:55:11.042Z,0
2017-11-07T01:55:51.600Z,0
2017-11-07T01:56:32.171Z,0
2017-11-07T01:57:12.767Z,0
2017-11-07T01:57:53.335Z,0
2017-11-07T01:58:33.919Z,0
2017-11-07T01:59:14.508Z,0
2017-11-07T01:59:55.070Z,0
2017-11-07T02:00:35.642Z,0
2017-11-07T02:01:16.229Z,0
2017-11-07T02:01:56.824Z,0
2017-11-07T02:02:37.385Z,0
2017-11-07T02:03:17.963Z,0
2017-11-07T02:03:58.529Z,0
2017-11-07T02:04:39.113Z,0
2017-11-07T02:05:19.695Z,0
2017-11-07T02:06:00.272Z,0
2017-11-07T02:06:40.842Z,0
2017-11-07T02:07:21.428Z,0
2017-11-07T02:08:02.017Z,0
2017-11-07T02:08:42.609Z,0
2017-11-07T02:09:23.172Z,0
2017-11-07T02:10:03.758Z,0
2017-11-07T02:10:44.334Z,0
2017-11-07T02:11:25.025Z,0
2017-11-07T02:12:05.589Z,0
2017-11-07T02:12:46.195Z,0
2017-11-07T02:13:26.793Z,0
2017-11-07T02:14:07.367Z,0
2017-11-07T02:14:47.939Z,0
2017-11-07T02:15:28.518Z,0
2017-11-07T02:16:09.112Z,0
2017-11-07T02:16:49.687Z,0
2017-11-07T02:17:30.277Z,0
2017-11-07T02:18:10.860Z,0
2017-11-07T02:18:51.451Z,0
2017-11-07T02:19:32.042Z,0
2017-11-07T02:20:12.612Z,0
2017-11-07T02:20:53.187Z,0
2017-11-07T02:21:33.757Z,0
2017-11-07T02:22:14.352Z,0
2017-11-07T02:22:54.936Z,0
2017-11-07T02:23:35.516Z,0
2017-11-07T02:24:16.136Z,0
2017-11-07T02:24:56.747Z,0
2017-11-07T02:25:37.363Z,0
2017-11-07T02:26:17.951Z,0
2017-11-07T02:26:58.524Z,0
2017-11-07T02:27:39.134Z,0
2017-11-07T02:28:19.706Z,0
2017-11-07T02:29:00.280Z,0
2017-11-07T02:29:40.836Z,0
2017-11-07T02:30:21.399Z,0
2017-11-07T02:31:01.976Z,0
2017-11-07T02:31:42.563Z,0
2017-11-07T02:32:23.132Z,0
2017-11-07T02:33:03.720Z,0
2017-11-07T02:33:44.323Z,0
2017-11-07T02:34:24.893Z,0
2017-11-07T02:35:05.480Z,0
2017-11-07T02:35:46.056Z,0
2017-11-07T02:36:26.689Z,0
2017-11-07T02:37:07.288Z,0
2017-11-07T02:37:47.889Z,0
2017-11-07T02:38:28.450Z,0
2017-11-07T02:39:09.012Z,0
2017-11-07T02:39:49.594Z,0
2017-11-07T02:40:30.202Z,0
2017-11-07T02:41:10.852Z,0
2017-11-07T02:41:51.452Z,0
2017-11-07T02:42:32.042Z,0
2017-11-07T02:43:12.611Z,0
2017-11-07T02:43:53.189Z,0
2017-11-07T02:44:33.781Z,0
2017-11-07T02:45:14.390Z,0
2017-11-07T02:45:54.951Z,0
2017-11-07T02:46:35.558Z,0
2017-11-07T02:47:16.133Z,0
2017-11-07T02:47:56.703Z,0
2017-11-07T02:48:37.321Z,0
2017-11-07T02:49:17.927Z,0
2017-11-07T02:49:58.498Z,0
2017-11-07T02:50:39.066Z,0
2017-11-07T02:51:19.653Z,0
2017-11-07T02:52:00.232Z,0
2017-11-07T02:52:40.809Z,0
2017-11-07T02:53:21.376Z,0
2017-11-07T02:54:01.957Z,0
2017-11-07T02:54:42.534Z,0
2017-11-07T02:55:23.169Z,0
2017-11-07T02:56:03.744Z,0
2017-11-07T02:56:44.325Z,0
2017-11-07T02:57:24.913Z,0
2017-11-07T02:58:05.493Z,0
2017-11-07T02:58:46.067Z,0
2017-11-07T02:59:26.635Z,0
2017-11-07T03:00:07.268Z,0
2017-11-07T03:00:47.848Z,0
2017-11-07T03:01:28.452Z,0
2017-11-07T03:02:09.020Z,0
2017-11-07T03:02:49.583Z,0
2017-11-07T03:03:30.181Z,0
2017-11-07T03:04:10.751Z,0
2017-11-07T03:04:51.379Z,0
2017-11-07T03:05:32.051Z,0
2017-11-07T03:06:12.636Z,0
2017-11-07T03:06:53.231Z,0
2017-11-07T03:07:33.831Z,0
2017-11-07T03:08:14.407Z,0
2017-11-07T03:08:54.971Z,0
2017-11-07T03:09:35.546Z,0
2017-11-07T03:10:16.147Z,0
2017-11-07T03:10:56.764Z,0
2017-11-07T03:11:37.356Z,0
2017-11-07T03:12:17.931Z,0
2017-11-07T03:12:58.487Z,0
2017-11-07T03:13:39.075Z,0
2017-11-07T03:14:19.632Z,0
2017-11-07T03:15:00.207Z,0
2017-11-07T03:15:40.800Z,0
2017-11-07T03:16:21.415Z,0
2017-11-07T03:17:01.989Z,0
2017-11-07T03:17:42.558Z,0
2017-11-07T03:18:23.128Z,0
2017-11-07T03:19:03.704Z,0
2017-11-07T03:19:44.327Z,0
2017-11-07T03:20:24.909Z,0
2017-11-07T03:21:05.473Z,0
2017-11-07T03:21:46.062Z,0
2017-11-07T03:22:26.647Z,0
2017-11-07T03:23:07.216Z,0
2017-11-07T03:23:47.784Z,0
2017-11-07T03:24:28.399Z,0
2017-11-07T03:25:08.962Z,0
2017-11-07T03:25:49.538Z,0
2017-11-07T03:26:30.104Z,0
2017-11-07T03:27:10.688Z,0
2017-11-07T03:27:51.275Z,0
2017-11-07T03:28:31.900Z,0
2017-11-07T03:29:12.488Z,0
2017-11-07T03:29:53.069Z,0
2017-11-07T03:30:34.617Z,0
2017-11-07T03:31:15.221Z,0
2017-11-07T03:31:55.807Z,0
2017-11-07T03:32:36.383Z,0
2017-11-07T03:33:16.953Z,0
2017-11-07T03:33:57.525Z,0
2017-11-07T03:34:38.107Z,0
2017-11-07T03:35:18.702Z,0
2017-11-07T03:35:59.272Z,0
2017-11-07T03:36:39.857Z,0
2017-11-07T03:37:20.461Z,0
2017-11-07T03:38:01.049Z,0
2017-11-07T03:38:41.624Z,0
2017-11-07T03:39:22.183Z,0
2017-11-07T03:40:02.784Z,0
2017-11-07T03:40:43.346Z,0
2017-11-07T03:41:23.919Z,0
2017-11-07T03:42:04.527Z,0
2017-11-07T03:42:45.123Z,0
2017-11-07T03:43:25.705Z,0
2017-11-07T03:44:06.324Z,0
2017-11-07T03:44:46.907Z,0
2017-11-07T03:45:27.500Z,0
2017-11-07T03:46:08.106Z,0
2017-11-07T03:46:48.693Z,0
2017-11-07T03:47:29.263Z,0
2017-11-07T03:48:09.864Z,0
2017-11-07T03:48:50.434Z,0
2017-11-07T03:49:31.018Z,0
2017-11-07T03:50:11.597Z,0
2017-11-07T03:50:52.199Z,0
2017-11-07T03:51:33.340Z,0
2017-11-07T03:52:13.911Z,0
2017-11-07T03:52:54.491Z,0
2017-11-07T03:53:35.126Z,0
2017-11-07T03:54:15.685Z,0
2017-11-07T03:54:56.250Z,0
2017-11-07T03:55:36.823Z,0
2017-11-07T03:56:17.421Z,0
2017-11-07T03:56:58.006Z,0
2017-11-07T03:57:38.592Z,0
2017-11-07T03:58:19.192Z,0
2017-11-07T03:58:59.760Z,0
2017-11-07T03:59:40.342Z,0
2017-11-07T04:00:20.909Z,0
2017-11-07T04:01:01.480Z,0
2017-11-07T04:01:42.077Z,0
2017-11-07T04:02:22.716Z,0
2017-11-07T04:03:03.264Z,0
2017-11-07T04:03:43.829Z,0
2017-11-07T04:04:24.417Z,0
2017-11-07T04:05:05.030Z,0
2017-11-07T04:05:45.576Z,0
2017-11-07T04:06:26.195Z,0
2017-11-07T04:07:06.763Z,0
2017-11-07T04:07:47.409Z,0
2017-11-07T04:08:28.036Z,0
2017-11-07T04:09:08.623Z,0
2017-11-07T04:09:49.186Z,0
2017-11-07T04:10:29.779Z,0
2017-11-07T04:11:10.349Z,0
2017-11-07T04:11:50.917Z,0
2017-11-07T04:12:31.506Z,0
2017-11-07T04:13:12.080Z,0
2017-11-07T04:13:52.689Z,0
2017-11-07T04:14:33.263Z,0
2017-11-07T04:15:13.838Z,0
2017-11-07T04:15:54.427Z,0
2017-11-07T04:16:34.992Z,0
2017-11-07T04:17:15.578Z,0
2017-11-07T04:17:56.252Z,0
2017-11-07T04:18:36.830Z,0
2017-11-07T04:19:17.461Z,0
2017-11-07T04:19:58.046Z,0
2017-11-07T04:20:38.624Z,0
2017-11-07T04:21:19.193Z,0
2017-11-07T04:21:59.811Z,0
2017-11-07T04:22:40.377Z,0
2017-11-07T04:23:20.960Z,0
2017-11-07T04:24:01.560Z,0
2017-11-07T04:24:42.131Z,0
2017-11-07T04:25:22.731Z,0
2017-11-07T04:26:03.307Z,0
2017-11-07T04:26:43.893Z,0
2017-11-07T04:27:24.462Z,0
2017-11-07T04:28:05.071Z,0
2017-11-07T04:28:45.648Z,0
2017-11-07T04:29:26.226Z,0
2017-11-07T04:30:06.827Z,0
2017-11-07T04:30:47.418Z,0
2017-11-07T04:31:28.006Z,0
2017-11-07T04:32:08.569Z,0
2017-11-07T04:32:49.174Z,0
2017-11-07T04:33:29.770Z,0
2017-11-07T04:34:10.387Z,0
2017-11-07T04:34:50.958Z,0
2017-11-07T04:35:31.576Z,0
2017-11-07T04:36:12.155Z,0
2017-11-07T04:36:52.742Z,0
2017-11-07T04:37:33.345Z,0
2017-11-07T04:38:13.940Z,0
2017-11-07T04:38:54.507Z,0
2017-11-07T04:39:35.101Z,0
2017-11-07T04:40:15.693Z,0
2017-11-07T04:40:56.269Z,0
2017-11-07T04:41:36.870Z,0
2017-11-07T04:42:17.445Z,0
2017-11-07T04:42:58.018Z,0
2017-11-07T04:43:38.610Z,0
2017-11-07T04:44:19.207Z,0
2017-11-07T04:44:59.784Z,0
2017-11-07T04:45:40.390Z,0
2017-11-07T04:46:21.005Z,0
2017-11-07T04:47:01.609Z,0
2017-11-07T04:47:42.197Z,0
2017-11-07T04:48:22.762Z,0
2017-11-07T04:49:03.345Z,0
2017-11-07T04:49:43.931Z,0
2017-11-07T04:50:24.548Z,0
2017-11-07T04:51:05.155Z,0
2017-11-07T04:51:45.731Z,0
2017-11-07T04:52:26.333Z,0
2017-11-07T04:53:06.898Z,0
2017-11-07T04:53:47.502Z,0
2017-11-07T04:54:28.111Z,0
2017-11-07T04:55:08.688Z,0
2017-11-07T04:55:49.265Z,0
2017-11-07T04:56:29.873Z,0
2017-11-07T04:57:10.456Z,0
2017-11-07T04:57:51.025Z,0
2017-11-07T04:58:31.597Z,0
2017-11-07T04:59:12.176Z,0
2017-11-07T04:59:52.765Z,0
2017-11-07T05:00:33.367Z,0
2017-11-07T05:01:13.970Z,0
2017-11-07T05:01:54.551Z,0
2017-11-07T05:02:35.150Z,0
2017-11-07T05:03:15.742Z,0
2017-11-07T05:03:56.335Z,0
2017-11-07T05:04:36.919Z,0
2017-11-07T05:05:17.485Z,0
2017-11-07T05:05:58.107Z,0
2017-11-07T05:06:38.653Z,0
2017-11-07T05:07:19.221Z,0
2017-11-07T05:07:59.815Z,0
2017-11-07T05:08:40.402Z,0
2017-11-07T05:09:20.978Z,0
2017-11-07T05:10:01.548Z,0
2017-11-07T05:10:42.157Z,0
2017-11-07T05:11:22.743Z,0
2017-11-07T05:12:03.338Z,0
2017-11-07T05:12:43.940Z,0
2017-11-07T05:13:24.512Z,0
2017-11-07T05:14:05.103Z,0
2017-11-07T05:14:45.697Z,0
2017-11-07T05:15:26.290Z,0
2017-11-07T05:16:06.863Z,0
2017-11-07T05:16:47.449Z,0
2017-11-07T05:17:28.043Z,0
2017-11-07T05:18:08.624Z,0
2017-11-07T05:18:49.189Z,0
2017-11-07T05:19:29.746Z,0
2017-11-07T05:20:10.328Z,0
2017-11-07T05:20:50.951Z,0
2017-11-07T05:21:31.532Z,0
2017-11-07T05:22:12.148Z,0
2017-11-07T05:22:52.741Z,0
2017-11-07T05:23:33.333Z,0
2017-11-07T05:24:13.903Z,0
2017-11-07T05:24:54.496Z,0
2017-11-07T05:25:35.084Z,0
2017-11-07T05:26:15.677Z,0
2017-11-07T05:26:56.410Z,0
2017-11-07T05:27:36.944Z,0
2017-11-07T05:28:17.529Z,0
2017-11-07T05:28:58.132Z,0
2017-11-07T05:29:38.715Z,0
2017-11-07T05:30:19.314Z,0
2017-11-07T05:30:59.904Z,0
2017-11-07T05:31:40.518Z,0
2017-11-07T05:32:21.109Z,0
2017-11-07T05:33:01.687Z,0
2017-11-07T05:33:42.264Z,0
2017-11-07T05:34:22.871Z,0
2017-11-07T05:35:03.482Z,0
2017-11-07T05:35:44.097Z,0
2017-11-07T05:36:24.668Z,0
2017-11-07T05:37:05.245Z,0
2017-11-07T05:37:45.814Z,0
2017-11-07T05:38:26.383Z,0
2017-11-07T05:39:06.976Z,0
2017-11-07T05:39:47.544Z,0
2017-11-07T05:40:28.161Z,0
2017-11-07T05:41:08.734Z,0
2017-11-07T05:41:49.305Z,0
2017-11-07T05:42:29.879Z,0
2017-11-07T05:43:10.450Z,0
2017-11-07T05:43:51.017Z,0
2017-11-07T05:44:31.594Z,0
2017-11-07T05:45:12.185Z,0
2017-11-07T05:45:52.772Z,0
2017-11-07T05:46:33.383Z,0
2017-11-07T05:47:13.979Z,0
2017-11-07T05:47:54.585Z,0
2017-11-07T05:48:35.161Z,0
2017-11-07T05:49:15.742Z,0
2017-11-07T05:49:56.339Z,0
2017-11-07T05:50:36.913Z,0
2017-11-07T05:51:17.496Z,0
2017-11-07T05:51:58.111Z,0
2017-11-07T05:52:38.669Z,0
2017-11-07T05:53:19.305Z,0
2017-11-07T05:53:59.904Z,0
2017-11-07T05:54:40.501Z,0
2017-11-07T05:55:21.135Z,0
2017-11-07T05:56:01.723Z,0
2017-11-07T05:56:42.309Z,0
2017-11-07T05:57:22.907Z,0
2017-11-07T05:58:03.552Z,0
2017-11-07T05:58:44.146Z,0
2017-11-07T05:59:24.726Z,0
2017-11-07T06:00:05.301Z,0
2017-11-07T06:00:45.915Z,0
2017-11-07T06:01:26.492Z,0
2017-11-07T06:02:07.088Z,0
2017-11-07T06:02:47.743Z,0
2017-11-07T06:03:28.324Z,0
2017-11-07T06:04:08.897Z,0
2017-11-07T06:04:49.460Z,0
2017-11-07T06:05:30.047Z,0
2017-11-07T06:06:10.624Z,0
2017-11-07T06:06:51.204Z,0
2017-11-07T06:07:31.785Z,0
2017-11-07T06:08:12.370Z,0
2017-11-07T06:08:52.948Z,0
2017-11-07T06:09:33.535Z,0
2017-11-07T06:10:14.112Z,0
2017-11-07T06:10:54.712Z,0
2017-11-07T06:11:35.301Z,0
2017-11-07T06:12:15.889Z,5
2017-11-07T06:12:56.487Z,5
2017-11-07T06:13:37.095Z,5
2017-11-07T06:14:17.688Z,5
2017-11-07T06:14:58.310Z,5
2017-11-07T06:15:38.872Z,5
2017-11-07T06:16:19.468Z,5
2017-11-07T06:17:00.051Z,5
2017-11-07T06:19:13.363Z,5
2017-11-07T06:19:53.950Z,5
2017-11-07T06:20:34.523Z,5
2017-11-07T06:21:15.099Z,5
2017-11-07T06:21:55.660Z,10
2017-11-07T06:22:36.257Z,10
2017-11-07T06:23:16.838Z,10
2017-11-07T06:23:57.411Z,10
2017-11-07T06:24:37.997Z,10
2017-11-07T06:25:18.568Z,10
2017-11-07T06:25:59.132Z,10
2017-11-07T06:26:39.692Z,10
2017-11-07T06:27:20.258Z,10
2017-11-07T06:28:00.820Z,10
2017-11-07T06:28:41.466Z,10
2017-11-07T06:29:22.006Z,15
2017-11-07T06:30:02.581Z,15
2017-11-07T06:30:43.172Z,15
2017-11-07T06:31:23.751Z,15
2017-11-07T06:32:04.343Z,15
2017-11-07T06:32:44.925Z,15
2017-11-07T06:33:25.510Z,15
2017-11-07T06:34:06.073Z,15
2017-11-07T06:34:46.682Z,15
2017-11-07T06:35:27.260Z,15
2017-11-07T06:36:07.836Z,20
2017-11-07T06:36:48.708Z,20
2017-11-07T06:37:29.289Z,20
2017-11-07T06:38:09.882Z,20
2017-11-07T06:38:50.499Z,20
2017-11-07T06:39:31.321Z,20
2017-11-07T06:40:11.901Z,20
2017-11-07T06:40:52.506Z,20
2017-11-07T06:41:33.100Z,20
2017-11-07T06:42:13.669Z,20
2017-11-07T06:42:54.268Z,25
2017-11-07T06:43:34.839Z,25
2017-11-07T06:44:15.430Z,25
2017-11-07T06:44:56.004Z,25
2017-11-07T06:45:36.573Z,25
2017-11-07T06:46:17.150Z,25
2017-11-07T06:46:57.732Z,25
2017-11-07T06:47:38.300Z,25
2017-11-07T06:48:18.890Z,25
2017-11-07T06:48:59.478Z,25
2017-11-07T06:49:40.151Z,30
2017-11-07T06:50:20.734Z,30
2017-11-07T06:51:01.307Z,30
2017-11-07T06:51:41.896Z,30
2017-11-07T06:52:22.471Z,30
2017-11-07T06:53:03.085Z,30
2017-11-07T06:53:43.668Z,30
2017-11-07T06:54:24.254Z,30
2017-11-07T06:55:04.839Z,30
2017-11-07T06:55:45.442Z,35
2017-11-07T06:56:26.007Z,35
2017-11-07T06:57:06.686Z,35
2017-11-07T06:57:47.322Z,35
2017-11-07T06:58:27.890Z,35
2017-11-07T06:59:08.516Z,35
2017-11-07T06:59:49.065Z,35
2017-11-07T07:00:29.644Z,35
2017-11-07T07:01:10.256Z,35
2017-11-07T07:01:50.862Z,35
2017-11-07T07:02:31.551Z,35
2017-11-07T07:03:12.129Z,40
2017-11-07T07:03:52.744Z,40
2017-11-07T07:04:33.338Z,40
2017-11-07T07:05:13.904Z,40
2017-11-07T07:05:54.496Z,40
2017-11-07T07:06:35.114Z,40
2017-11-07T07:07:15.663Z,40
2017-11-07T07:07:56.620Z,40
2017-11-07T07:08:37.224Z,40
2017-11-07T07:09:17.804Z,40
2017-11-07T07:09:58.405Z,45
2017-11-07T07:10:38.986Z,45
2017-11-07T07:11:19.627Z,45
2017-11-07T07:12:00.245Z,45
2017-11-07T07:12:40.853Z,45
2017-11-07T07:13:21.434Z,45
2017-11-07T07:14:02.023Z,45
2017-11-07T07:14:42.630Z,45
2017-11-07T07:15:23.223Z,45
2017-11-07T07:16:03.961Z,45
2017-11-07T07:16:44.732Z,50
2017-11-07T07:17:25.307Z,50
2017-11-07T07:18:05.880Z,50
2017-11-07T07:18:46.472Z,50
2017-11-07T07:19:27.045Z,50
2017-11-07T07:20:07.892Z,50
2017-11-07T07:20:48.468Z,50
2017-11-07T07:21:29.140Z,50
2017-11-07T07:22:09.766Z,50
2017-11-07T07:22:50.407Z,50
2017-11-07T07:23:31.001Z,55
2017-11-07T07:24:11.568Z,55
2017-11-07T07:24:52.171Z,55
2017-11-07T07:25:32.867Z,55
2017-11-07T07:26:13.451Z,55
2017-11-07T07:26:54.055Z,55
2017-11-07T07:27:34.669Z,55
2017-11-07T07:28:15.288Z,55
2017-11-07T07:28:55.857Z,55
2017-11-07T07:29:36.437Z,55
2017-11-07T07:30:17.067Z,55
2017-11-07T07:30:57.667Z,55
2017-11-07T07:31:38.880Z,60
2017-11-07T07:32:19.122Z,60
2017-11-07T07:32:59.685Z,60
2017-11-07T07:33:40.266Z,60
2017-11-07T07:34:20.918Z,60
2017-11-07T07:35:01.535Z,60
2017-11-07T07:35:42.138Z,60
2017-11-07T07:36:22.732Z,60
2017-11-07T07:37:03.303Z,60
2017-11-07T07:37:43.889Z,60
2017-11-07T07:38:24.510Z,60
2017-11-07T07:39:05.100Z,65
2017-11-07T07:39:45.672Z,65
2017-11-07T07:40:26.254Z,65
2017-11-07T07:41:06.827Z,65
2017-11-07T07:41:47.391Z,65
2017-11-07T07:42:27.965Z,65
2017-11-07T07:43:08.567Z,70
2017-11-07T07:43:49.158Z,70
2017-11-07T07:44:29.716Z,70
2017-11-07T07:45:10.333Z,70
2017-11-07T07:45:50.990Z,70
2017-11-07T07:46:31.559Z,70
2017-11-07T07:47:12.151Z,70
2017-11-07T07:47:52.744Z,70
2017-11-07T07:48:33.352Z,70
2017-11-07T07:49:13.986Z,75
2017-11-07T07:49:54.572Z,75
2017-11-07T07:50:35.149Z,75
2017-11-07T07:51:15.731Z,75
2017-11-07T07:51:56.313Z,75
2017-11-07T07:52:36.933Z,75
2017-11-07T07:53:17.505Z,75
2017-11-07T07:53:58.077Z,75
2017-11-07T07:54:38.660Z,80
2017-11-07T07:55:19.237Z,80
2017-11-07T07:55:59.827Z,80
2017-11-07T07:56:40.408Z,80
2017-11-07T07:57:21.012Z,80
2017-11-07T07:58:01.591Z,80
2017-11-07T07:58:42.182Z,80
2017-11-07T07:59:22.779Z,80
2017-11-07T08:00:03.357Z,80
2017-11-07T08:00:43.934Z,80
2017-11-07T08:01:24.543Z,85
2017-11-07T08:02:05.151Z,85
2017-11-07T08:02:45.751Z,90
2017-11-07T08:03:26.331Z,95
2017-11-07T08:04:06.896Z,100
2017-11-07T08:04:47.464Z,105
2017-11-07T08:05:28.055Z,195
2017-11-07T08:06:08.650Z,400
2017-11-07T08:06:49.261Z,590
2017-11-07T08:07:29.858Z,705
2017-11-07T08:08:10.442Z,710
2017-11-07T08:08:51.017Z,660
2017-11-07T08:09:31.631Z,595
2017-11-07T08:10:12.222Z,555
2017-11-07T08:10:52.810Z,595
2017-11-07T08:11:33.394Z,745
2017-11-07T08:12:13.957Z,955
2017-11-07T08:12:54.538Z,1120
2017-11-07T08:13:35.119Z,1175
2017-11-07T08:14:15.705Z,1200
2017-11-07T08:14:56.358Z,1245
2017-11-07T08:15:36.955Z,1280
2017-11-07T08:16:17.533Z,1255
2017-11-07T08:16:58.105Z,1090
2017-11-07T08:17:38.679Z,1040
2017-11-07T08:18:19.291Z,1005
2017-11-07T08:18:59.870Z,1030
2017-11-07T08:19:40.461Z,1020
2017-11-07T08:20:21.038Z,1000
2017-11-07T08:21:01.830Z,1045
2017-11-07T08:21:42.407Z,1000
2017-11-07T08:22:22.980Z,955
2017-11-07T08:23:03.558Z,930
2017-11-07T08:23:44.175Z,885
2017-11-07T08:24:24.753Z,875
2017-11-07T08:25:05.340Z,875
2017-11-07T08:25:45.937Z,820
2017-11-07T08:26:26.507Z,785
2017-11-07T08:27:07.096Z,820
2017-11-07T08:27:47.730Z,930
2017-11-07T08:28:28.336Z,990
2017-11-07T08:29:08.915Z,1030
2017-11-07T08:29:49.525Z,1095
2017-11-07T08:30:30.117Z,1125
2017-11-07T08:31:10.709Z,1075
2017-11-07T08:31:51.403Z,990
2017-11-07T08:32:32.019Z,880
2017-11-07T08:33:12.599Z,845
2017-11-07T08:33:53.219Z,730
2017-11-07T08:34:33.816Z,700
2017-11-07T08:35:14.454Z,645
2017-11-07T08:35:55.085Z,540
2017-11-07T08:36:35.680Z,470
2017-11-07T08:37:16.266Z,435
2017-11-07T08:37:56.842Z,550
2017-11-07T08:38:37.472Z,650
2017-11-07T08:39:18.041Z,670
2017-11-07T08:39:58.626Z,650
2017-11-07T08:40:39.224Z,675
2017-11-07T08:41:19.884Z,740
2017-11-07T08:42:00.477Z,685
2017-11-07T08:42:41.057Z,640
2017-11-07T08:43:21.634Z,585
2017-11-07T08:44:02.211Z,510
2017-11-07T08:44:42.807Z,480
2017-11-07T08:45:23.377Z,395
2017-11-07T08:46:04.007Z,415
2017-11-07T08:46:44.588Z,595
2017-11-07T08:47:25.200Z,795
2017-11-07T08:48:05.768Z,980
2017-11-07T08:48:46.366Z,1035
2017-11-07T08:49:26.952Z,960
2017-11-07T08:50:07.543Z,865
2017-11-07T08:50:48.131Z,735
2017-11-07T08:51:28.744Z,615
2017-11-07T08:52:09.413Z,350
2017-11-07T08:52:49.993Z,340
2017-11-07T08:53:30.582Z,360
2017-11-07T08:54:11.170Z,435
2017-11-07T08:54:51.960Z,520
2017-11-07T08:55:32.522Z,640
2017-11-07T08:56:13.113Z,660
2017-11-07T08:56:53.710Z,705
2017-11-07T08:57:34.361Z,775
2017-11-07T08:58:14.959Z,685
2017-11-07T08:58:55.564Z,490
2017-11-07T08:59:36.181Z,490
2017-11-07T09:00:16.745Z,540
2017-11-07T09:00:57.340Z,585
2017-11-07T09:01:37.917Z,485
2017-11-07T09:02:18.772Z,400
2017-11-07T09:02:59.370Z,330
2017-11-07T09:03:39.955Z,315
2017-11-07T09:04:20.572Z,320
2017-11-07T09:05:01.179Z,250
2017-11-07T09:05:41.837Z,190
2017-11-07T09:06:22.495Z,175
2017-11-07T09:07:03.330Z,185
2017-11-07T09:07:43.933Z,190
2017-11-07T09:08:24.510Z,200
2017-11-07T09:09:05.120Z,205
2017-11-07T09:09:45.730Z,210
2017-11-07T09:10:26.353Z,210
2017-11-07T09:11:06.969Z,205
2017-11-07T09:11:47.565Z,190
2017-11-07T09:12:28.363Z,175
2017-11-07T09:13:08.989Z,175
2017-11-07T09:13:49.614Z,175
2017-11-07T09:14:30.188Z,170
2017-11-07T09:15:10.761Z,170
2017-11-07T09:15:51.333Z,175
2017-11-07T09:16:31.953Z,165
2017-11-07T09:17:12.514Z,165
2017-11-07T09:17:53.101Z,155
2017-11-07T09:18:33.766Z,150
2017-11-07T09:19:14.357Z,145
2017-11-07T09:19:55.154Z,140
2017-11-07T09:20:35.751Z,135
2017-11-07T09:21:16.342Z,130
2017-11-07T09:21:57.055Z,125
2017-11-07T09:22:37.641Z,130
2017-11-07T09:23:18.305Z,130
2017-11-07T09:23:58.875Z,135
2017-11-07T09:24:39.466Z,135
2017-11-07T09:25:20.057Z,135
2017-11-07T09:26:00.627Z,145
2017-11-07T09:26:41.214Z,140
2017-11-07T09:27:21.871Z,135
2017-11-07T09:28:02.478Z,140
2017-11-07T09:28:43.100Z,140
2017-11-07T09:29:23.680Z,140
2017-11-07T09:30:04.308Z,140
2017-11-07T09:30:44.917Z,135
2017-11-07T09:31:25.497Z,135
2017-11-07T09:32:06.092Z,130
2017-11-07T09:32:46.666Z,130
2017-11-07T09:33:27.247Z,130
2017-11-07T09:34:07.837Z,130
2017-11-07T09:34:48.471Z,130
2017-11-07T09:35:29.062Z,125
2017-11-07T09:36:09.722Z,125
2017-11-07T09:36:50.251Z,125
2017-11-07T09:37:30.833Z,120
2017-11-07T09:38:11.414Z,120
2017-11-07T09:38:52.030Z,120
2017-11-07T09:39:32.617Z,115
2017-11-07T09:40:13.194Z,115
2017-11-07T09:40:53.783Z,115
2017-11-07T09:41:34.380Z,115
2017-11-07T09:42:14.985Z,115
2017-11-07T09:42:55.635Z,110
2017-11-07T09:43:36.230Z,110
2017-11-07T09:44:16.844Z,110
2017-11-07T09:44:57.416Z,110
2017-11-07T09:45:38.053Z,105
2017-11-07T09:46:18.710Z,105
2017-11-07T09:46:59.328Z,105
2017-11-07T09:47:39.913Z,105
2017-11-07T09:48:20.513Z,100
2017-11-07T09:49:01.105Z,100
2017-11-07T09:49:41.718Z,100